sensor_id;sensor_type;location;lat;lon;timestamp;P1;durP1;ratioP1;P2;durP2;ratioP2
69463;SDS011;56665;41.106;16.688;2023-10-19T00:00:38;4.68;;;3.10;;
69463;SDS011;56665;41.106;16.688;2023-10-19T00:03:42;5.85;;;3.10;;
69463;SDS011;56665;41.106;16.688;2023-10-19T00:06:49;5.60;;;3.53;;
69463;SDS011;56665;41.106;16.688;2023-10-19T00:09:52;6.82;;;3.20;;
69463;SDS011;56665;41.106;16.688;2023-10-19T00:12:57;4.47;;;3.00;;
69463;SDS011;56665;41.106;16.688;2023-10-19T00:16:03;5.55;;;3.20;;
69463;SDS011;56665;41.106;16.688;2023-10-19T00:19:34;6.05;;;3.65;;
69463;SDS011;56665;41.106;16.688;2023-10-19T00:23:01;4.77;;;3.30;;
69463;SDS011;56665;41.106;16.688;2023-10-19T00:26:08;5.47;;;3.33;;
69463;SDS011;56665;41.106;16.688;2023-10-19T00:29:22;5.53;;;3.30;;
69463;SDS011;56665;41.106;16.688;2023-10-19T00:32:36;6.80;;;3.17;;
69463;SDS011;56665;41.106;16.688;2023-10-19T00:35:41;7.07;;;3.70;;
69463;SDS011;56665;41.106;16.688;2023-10-19T00:38:50;6.93;;;3.27;;
69463;SDS011;56665;41.106;16.688;2023-10-19T00:41:56;6.97;;;3.70;;
69463;SDS011;56665;41.106;16.688;2023-10-19T00:45:01;5.50;;;3.63;;
69463;SDS011;56665;41.106;16.688;2023-10-19T00:48:08;7.32;;;3.72;;
69463;SDS011;56665;41.106;16.688;2023-10-19T00:51:14;7.53;;;3.60;;
69463;SDS011;56665;41.106;16.688;2023-10-19T00:54:34;5.87;;;3.80;;
69463;SDS011;56665;41.106;16.688;2023-10-19T00:57:43;6.18;;;3.90;;
69463;SDS011;56665;41.106;16.688;2023-10-19T01:00:51;6.45;;;3.95;;
69463;SDS011;56665;41.106;16.688;2023-10-19T01:03:58;4.70;;;3.35;;
69463;SDS011;56665;41.106;16.688;2023-10-19T01:07:02;7.35;;;4.22;;
69463;SDS011;56665;41.106;16.688;2023-10-19T01:10:14;6.13;;;4.00;;
69463;SDS011;56665;41.106;16.688;2023-10-19T01:13:24;5.60;;;3.78;;
69463;SDS011;56665;41.106;16.688;2023-10-19T01:16:30;6.10;;;4.07;;
69463;SDS011;56665;41.106;16.688;2023-10-19T01:19:36;6.20;;;4.03;;
69463;SDS011;56665;41.106;16.688;2023-10-19T01:22:50;6.75;;;3.80;;
69463;SDS011;56665;41.106;16.688;2023-10-19T01:25:59;6.23;;;3.97;;
69463;SDS011;56665;41.106;16.688;2023-10-19T01:29:03;6.93;;;4.13;;
69463;SDS011;56665;41.106;16.688;2023-10-19T01:32:17;5.95;;;4.30;;
69463;SDS011;56665;41.106;16.688;2023-10-19T01:35:20;7.05;;;4.50;;
69463;SDS011;56665;41.106;16.688;2023-10-19T01:38:24;6.07;;;4.25;;
69463;SDS011;56665;41.106;16.688;2023-10-19T01:41:28;8.07;;;5.10;;
69463;SDS011;56665;41.106;16.688;2023-10-19T01:44:36;8.60;;;4.80;;
69463;SDS011;56665;41.106;16.688;2023-10-19T01:47:40;6.20;;;4.40;;
69463;SDS011;56665;41.106;16.688;2023-10-19T01:50:43;7.53;;;4.63;;
69463;SDS011;56665;41.106;16.688;2023-10-19T01:53:47;6.68;;;4.57;;
69463;SDS011;56665;41.106;16.688;2023-10-19T01:56:51;7.57;;;4.57;;
69463;SDS011;56665;41.106;16.688;2023-10-19T01:59:58;7.95;;;4.78;;
69463;SDS011;56665;41.106;16.688;2023-10-19T02:03:08;7.60;;;4.63;;
69463;SDS011;56665;41.106;16.688;2023-10-19T02:06:13;7.13;;;4.55;;
69463;SDS011;56665;41.106;16.688;2023-10-19T02:09:22;8.00;;;4.65;;
69463;SDS011;56665;41.106;16.688;2023-10-19T02:12:29;6.73;;;4.67;;
69463;SDS011;56665;41.106;16.688;2023-10-19T02:15:33;9.38;;;5.10;;
69463;SDS011;56665;41.106;16.688;2023-10-19T02:18:41;7.80;;;4.93;;
69463;SDS011;56665;41.106;16.688;2023-10-19T02:21:46;6.78;;;4.88;;
69463;SDS011;56665;41.106;16.688;2023-10-19T02:24:51;7.85;;;5.25;;
69463;SDS011;56665;41.106;16.688;2023-10-19T02:27:55;7.77;;;5.03;;
69463;SDS011;56665;41.106;16.688;2023-10-19T02:30:59;8.23;;;5.32;;
69463;SDS011;56665;41.106;16.688;2023-10-19T02:34:14;8.52;;;5.47;;
69463;SDS011;56665;41.106;16.688;2023-10-19T02:37:18;7.75;;;5.40;;
69463;SDS011;56665;41.106;16.688;2023-10-19T02:40:22;8.40;;;5.05;;
69463;SDS011;56665;41.106;16.688;2023-10-19T02:43:28;11.10;;;5.30;;
69463;SDS011;56665;41.106;16.688;2023-10-19T02:46:33;8.00;;;5.00;;
69463;SDS011;56665;41.106;16.688;2023-10-19T02:49:37;7.53;;;4.90;;
69463;SDS011;56665;41.106;16.688;2023-10-19T02:52:46;7.45;;;4.80;;
69463;SDS011;56665;41.106;16.688;2023-10-19T02:55:50;6.95;;;4.18;;
69463;SDS011;56665;41.106;16.688;2023-10-19T02:58:54;6.50;;;4.50;;
69463;SDS011;56665;41.106;16.688;2023-10-19T03:02:02;8.75;;;4.50;;
69463;SDS011;56665;41.106;16.688;2023-10-19T03:05:11;6.57;;;4.70;;
69463;SDS011;56665;41.106;16.688;2023-10-19T03:08:18;7.25;;;4.45;;
69463;SDS011;56665;41.106;16.688;2023-10-19T03:11:22;5.97;;;4.32;;
69463;SDS011;56665;41.106;16.688;2023-10-19T03:14:31;9.57;;;4.80;;
69463;SDS011;56665;41.106;16.688;2023-10-19T03:17:35;6.43;;;4.38;;
69463;SDS011;56665;41.106;16.688;2023-10-19T03:20:39;7.95;;;4.22;;
69463;SDS011;56665;41.106;16.688;2023-10-19T03:23:44;8.25;;;4.53;;
69463;SDS011;56665;41.106;16.688;2023-10-19T03:26:49;7.18;;;4.68;;
69463;SDS011;56665;41.106;16.688;2023-10-19T03:29:53;8.83;;;4.70;;
69463;SDS011;56665;41.106;16.688;2023-10-19T03:33:08;8.23;;;4.43;;
69463;SDS011;56665;41.106;16.688;2023-10-19T03:36:15;7.82;;;4.82;;
69463;SDS011;56665;41.106;16.688;2023-10-19T03:39:19;5.45;;;4.30;;
69463;SDS011;56665;41.106;16.688;2023-10-19T03:42:24;8.02;;;4.50;;
69463;SDS011;56665;41.106;16.688;2023-10-19T03:45:30;9.23;;;4.60;;
69463;SDS011;56665;41.106;16.688;2023-10-19T03:48:37;7.85;;;5.95;;
69463;SDS011;56665;41.106;16.688;2023-10-19T03:51:42;41.88;;;21.33;;
69463;SDS011;56665;41.106;16.688;2023-10-19T03:55:12;28.77;;;14.32;;
69463;SDS011;56665;41.106;16.688;2023-10-19T03:58:18;14.40;;;8.93;;
69463;SDS011;56665;41.106;16.688;2023-10-19T04:01:23;8.43;;;5.50;;
69463;SDS011;56665;41.106;16.688;2023-10-19T04:04:27;6.97;;;5.22;;
69463;SDS011;56665;41.106;16.688;2023-10-19T04:07:32;7.25;;;5.30;;
69463;SDS011;56665;41.106;16.688;2023-10-19T04:10:36;9.52;;;5.38;;
69463;SDS011;56665;41.106;16.688;2023-10-19T04:13:40;8.48;;;4.93;;
69463;SDS011;56665;41.106;16.688;2023-10-19T04:16:44;8.73;;;5.43;;
69463;SDS011;56665;41.106;16.688;2023-10-19T04:19:47;8.98;;;5.60;;
69463;SDS011;56665;41.106;16.688;2023-10-19T04:22:58;7.40;;;5.20;;
69463;SDS011;56665;41.106;16.688;2023-10-19T04:26:08;8.68;;;5.35;;
69463;SDS011;56665;41.106;16.688;2023-10-19T04:29:15;7.55;;;5.57;;
69463;SDS011;56665;41.106;16.688;2023-10-19T04:32:21;8.33;;;5.37;;
69463;SDS011;56665;41.106;16.688;2023-10-19T04:35:29;10.23;;;5.25;;
69463;SDS011;56665;41.106;16.688;2023-10-19T04:38:37;9.43;;;4.90;;
69463;SDS011;56665;41.106;16.688;2023-10-19T04:41:41;8.07;;;5.50;;
69463;SDS011;56665;41.106;16.688;2023-10-19T04:44:46;6.97;;;4.97;;
69463;SDS011;56665;41.106;16.688;2023-10-19T04:47:50;8.33;;;5.37;;
69463;SDS011;56665;41.106;16.688;2023-10-19T04:50:58;8.93;;;5.25;;
69463;SDS011;56665;41.106;16.688;2023-10-19T04:54:02;10.65;;;5.65;;
69463;SDS011;56665;41.106;16.688;2023-10-19T04:57:06;8.52;;;5.55;;
69463;SDS011;56665;41.106;16.688;2023-10-19T05:00:09;7.78;;;5.80;;
69463;SDS011;56665;41.106;16.688;2023-10-19T05:03:17;10.00;;;5.43;;
69463;SDS011;56665;41.106;16.688;2023-10-19T05:06:22;11.82;;;6.10;;
69463;SDS011;56665;41.106;16.688;2023-10-19T05:09:25;8.65;;;5.85;;
69463;SDS011;56665;41.106;16.688;2023-10-19T05:12:29;9.43;;;5.53;;
69463;SDS011;56665;41.106;16.688;2023-10-19T05:15:33;7.88;;;5.70;;
69463;SDS011;56665;41.106;16.688;2023-10-19T05:18:39;7.40;;;5.57;;
69463;SDS011;56665;41.106;16.688;2023-10-19T05:21:43;9.38;;;5.82;;
69463;SDS011;56665;41.106;16.688;2023-10-19T05:24:48;9.02;;;6.13;;
69463;SDS011;56665;41.106;16.688;2023-10-19T05:27:51;12.05;;;5.90;;
69463;SDS011;56665;41.106;16.688;2023-10-19T05:30:55;13.25;;;5.65;;
69463;SDS011;56665;41.106;16.688;2023-10-19T05:33:59;8.13;;;5.00;;
69463;SDS011;56665;41.106;16.688;2023-10-19T05:37:03;7.68;;;5.05;;
69463;SDS011;56665;41.106;16.688;2023-10-19T05:40:08;10.00;;;5.53;;
69463;SDS011;56665;41.106;16.688;2023-10-19T05:43:15;12.25;;;5.53;;
69463;SDS011;56665;41.106;16.688;2023-10-19T05:46:19;8.50;;;5.28;;
69463;SDS011;56665;41.106;16.688;2023-10-19T05:49:25;10.63;;;5.83;;
69463;SDS011;56665;41.106;16.688;2023-10-19T05:52:29;9.70;;;5.25;;
69463;SDS011;56665;41.106;16.688;2023-10-19T05:55:33;8.88;;;5.50;;
69463;SDS011;56665;41.106;16.688;2023-10-19T05:58:38;8.50;;;5.10;;
69463;SDS011;56665;41.106;16.688;2023-10-19T06:01:42;11.30;;;5.40;;
69463;SDS011;56665;41.106;16.688;2023-10-19T06:04:49;7.97;;;4.90;;
69463;SDS011;56665;41.106;16.688;2023-10-19T06:07:53;7.95;;;5.05;;
69463;SDS011;56665;41.106;16.688;2023-10-19T06:10:57;8.45;;;4.78;;
69463;SDS011;56665;41.106;16.688;2023-10-19T06:14:00;7.25;;;4.85;;
69463;SDS011;56665;41.106;16.688;2023-10-19T06:17:04;11.23;;;4.95;;
69463;SDS011;56665;41.106;16.688;2023-10-19T06:20:08;7.03;;;4.73;;
69463;SDS011;56665;41.106;16.688;2023-10-19T06:23:22;9.60;;;4.50;;
69463;SDS011;56665;41.106;16.688;2023-10-19T06:26:26;8.05;;;4.28;;
69463;SDS011;56665;41.106;16.688;2023-10-19T06:29:30;8.30;;;4.20;;
69463;SDS011;56665;41.106;16.688;2023-10-19T06:32:34;6.43;;;4.30;;
69463;SDS011;56665;41.106;16.688;2023-10-19T06:35:38;8.63;;;4.30;;
69463;SDS011;56665;41.106;16.688;2023-10-19T06:38:41;6.05;;;4.50;;
69463;SDS011;56665;41.106;16.688;2023-10-19T06:41:45;8.48;;;4.85;;
69463;SDS011;56665;41.106;16.688;2023-10-19T06:44:48;11.30;;;4.75;;
69463;SDS011;56665;41.106;16.688;2023-10-19T06:47:57;8.13;;;4.88;;
69463;SDS011;56665;41.106;16.688;2023-10-19T06:51:01;7.40;;;4.90;;
69463;SDS011;56665;41.106;16.688;2023-10-19T06:54:05;8.85;;;4.55;;
69463;SDS011;56665;41.106;16.688;2023-10-19T06:57:11;7.53;;;4.57;;
69463;SDS011;56665;41.106;16.688;2023-10-19T07:00:15;10.13;;;4.43;;
69463;SDS011;56665;41.106;16.688;2023-10-19T07:03:23;9.07;;;4.40;;
69463;SDS011;56665;41.106;16.688;2023-10-19T07:06:27;7.47;;;4.60;;
69463;SDS011;56665;41.106;16.688;2023-10-19T07:09:31;6.53;;;4.20;;
69463;SDS011;56665;41.106;16.688;2023-10-19T07:12:35;8.35;;;4.53;;
69463;SDS011;56665;41.106;16.688;2023-10-19T07:15:40;9.10;;;4.20;;
69463;SDS011;56665;41.106;16.688;2023-10-19T07:18:44;9.30;;;3.80;;
69463;SDS011;56665;41.106;16.688;2023-10-19T07:21:48;10.10;;;3.77;;
69463;SDS011;56665;41.106;16.688;2023-10-19T07:24:52;5.57;;;3.70;;
69463;SDS011;56665;41.106;16.688;2023-10-19T07:27:58;8.15;;;4.25;;
69463;SDS011;56665;41.106;16.688;2023-10-19T07:31:03;6.57;;;3.90;;
69463;SDS011;56665;41.106;16.688;2023-10-19T07:34:07;8.75;;;4.68;;
69463;SDS011;56665;41.106;16.688;2023-10-19T07:37:12;6.47;;;3.80;;
69463;SDS011;56665;41.106;16.688;2023-10-19T07:40:18;8.02;;;4.50;;
69463;SDS011;56665;41.106;16.688;2023-10-19T07:43:23;9.65;;;4.32;;
69463;SDS011;56665;41.106;16.688;2023-10-19T07:46:28;9.95;;;4.43;;
69463;SDS011;56665;41.106;16.688;2023-10-19T07:49:32;10.38;;;4.22;;
69463;SDS011;56665;41.106;16.688;2023-10-19T07:52:36;9.43;;;4.40;;
69463;SDS011;56665;41.106;16.688;2023-10-19T07:55:39;6.93;;;4.05;;
69463;SDS011;56665;41.106;16.688;2023-10-19T07:58:45;9.00;;;3.90;;
69463;SDS011;56665;41.106;16.688;2023-10-19T08:01:49;11.07;;;4.35;;
69463;SDS011;56665;41.106;16.688;2023-10-19T08:04:53;10.07;;;3.95;;
69463;SDS011;56665;41.106;16.688;2023-10-19T08:07:57;9.23;;;3.63;;
69463;SDS011;56665;41.106;16.688;2023-10-19T08:11:01;7.30;;;3.83;;
69463;SDS011;56665;41.106;16.688;2023-10-19T08:14:05;8.90;;;4.28;;
69463;SDS011;56665;41.106;16.688;2023-10-19T08:17:09;7.65;;;3.92;;
69463;SDS011;56665;41.106;16.688;2023-10-19T08:20:13;6.60;;;3.63;;
69463;SDS011;56665;41.106;16.688;2023-10-19T08:23:26;10.50;;;3.83;;
69463;SDS011;56665;41.106;16.688;2023-10-19T08:26:31;8.27;;;3.92;;
69463;SDS011;56665;41.106;16.688;2023-10-19T08:29:34;9.07;;;4.05;;
69463;SDS011;56665;41.106;16.688;2023-10-19T08:32:39;9.38;;;3.72;;
69463;SDS011;56665;41.106;16.688;2023-10-19T08:35:44;8.50;;;3.70;;
69463;SDS011;56665;41.106;16.688;2023-10-19T08:38:48;6.90;;;3.70;;
69463;SDS011;56665;41.106;16.688;2023-10-19T08:41:52;12.82;;;4.28;;
69463;SDS011;56665;41.106;16.688;2023-10-19T08:44:58;10.88;;;4.43;;
69463;SDS011;56665;41.106;16.688;2023-10-19T08:48:03;10.80;;;4.32;;
69463;SDS011;56665;41.106;16.688;2023-10-19T08:51:08;6.75;;;3.78;;
69463;SDS011;56665;41.106;16.688;2023-10-19T08:54:13;10.20;;;4.40;;
69463;SDS011;56665;41.106;16.688;2023-10-19T08:57:18;12.38;;;4.07;;
69463;SDS011;56665;41.106;16.688;2023-10-19T09:00:23;9.35;;;4.03;;
69463;SDS011;56665;41.106;16.688;2023-10-19T09:03:28;10.68;;;3.75;;
69463;SDS011;56665;41.106;16.688;2023-10-19T09:06:35;9.55;;;4.20;;
69463;SDS011;56665;41.106;16.688;2023-10-19T09:09:45;7.27;;;4.03;;
69463;SDS011;56665;41.106;16.688;2023-10-19T09:13:00;6.70;;;4.22;;
69463;SDS011;56665;41.106;16.688;2023-10-19T09:16:05;8.70;;;4.25;;
69463;SDS011;56665;41.106;16.688;2023-10-19T09:19:09;10.70;;;5.05;;
69463;SDS011;56665;41.106;16.688;2023-10-19T09:22:14;12.55;;;5.25;;
69463;SDS011;56665;41.106;16.688;2023-10-19T09:25:26;9.57;;;5.03;;
69463;SDS011;56665;41.106;16.688;2023-10-19T09:28:29;10.55;;;5.40;;
69463;SDS011;56665;41.106;16.688;2023-10-19T09:31:36;8.13;;;4.68;;
69463;SDS011;56665;41.106;16.688;2023-10-19T09:34:40;12.10;;;5.43;;
69463;SDS011;56665;41.106;16.688;2023-10-19T09:37:46;11.05;;;5.00;;
69463;SDS011;56665;41.106;16.688;2023-10-19T09:40:51;11.60;;;5.30;;
69463;SDS011;56665;41.106;16.688;2023-10-19T09:44:02;10.38;;;5.90;;
69463;SDS011;56665;41.106;16.688;2023-10-19T09:47:14;8.55;;;4.90;;
69463;SDS011;56665;41.106;16.688;2023-10-19T09:50:27;10.40;;;5.53;;
69463;SDS011;56665;41.106;16.688;2023-10-19T09:53:30;13.18;;;5.95;;
69463;SDS011;56665;41.106;16.688;2023-10-19T09:56:36;10.07;;;5.13;;
69463;SDS011;56665;41.106;16.688;2023-10-19T09:59:45;11.07;;;5.07;;
69463;SDS011;56665;41.106;16.688;2023-10-19T10:02:52;10.10;;;5.53;;
69463;SDS011;56665;41.106;16.688;2023-10-19T10:05:58;10.25;;;5.45;;
69463;SDS011;56665;41.106;16.688;2023-10-19T10:09:02;9.23;;;5.30;;
69463;SDS011;56665;41.106;16.688;2023-10-19T10:12:17;11.60;;;5.80;;
69463;SDS011;56665;41.106;16.688;2023-10-19T10:15:22;8.32;;;4.97;;
69463;SDS011;56665;41.106;16.688;2023-10-19T10:18:43;12.45;;;6.65;;
69463;SDS011;56665;41.106;16.688;2023-10-19T10:25:27;18.77;;;6.07;;
69463;SDS011;56665;41.106;16.688;2023-10-19T10:28:32;10.87;;;6.50;;
69463;SDS011;56665;41.106;16.688;2023-10-19T10:31:40;10.75;;;5.65;;
69463;SDS011;56665;41.106;16.688;2023-10-19T10:34:45;10.50;;;5.93;;
69463;SDS011;56665;41.106;16.688;2023-10-19T10:37:53;12.20;;;6.13;;
69463;SDS011;56665;41.106;16.688;2023-10-19T10:40:57;11.90;;;6.18;;
69463;SDS011;56665;41.106;16.688;2023-10-19T10:44:01;13.33;;;5.97;;
69463;SDS011;56665;41.106;16.688;2023-10-19T10:47:10;13.82;;;5.90;;
69463;SDS011;56665;41.106;16.688;2023-10-19T10:50:18;10.43;;;5.78;;
69463;SDS011;56665;41.106;16.688;2023-10-19T10:53:22;10.63;;;5.88;;
69463;SDS011;56665;41.106;16.688;2023-10-19T10:56:29;11.45;;;6.22;;
69463;SDS011;56665;41.106;16.688;2023-10-19T10:59:33;11.07;;;6.23;;
69463;SDS011;56665;41.106;16.688;2023-10-19T11:02:37;12.85;;;5.90;;
69463;SDS011;56665;41.106;16.688;2023-10-19T11:05:46;13.18;;;6.40;;
69463;SDS011;56665;41.106;16.688;2023-10-19T11:08:49;13.52;;;6.25;;
69463;SDS011;56665;41.106;16.688;2023-10-19T11:11:53;15.75;;;6.25;;
69463;SDS011;56665;41.106;16.688;2023-10-19T11:14:57;12.03;;;5.87;;
69463;SDS011;56665;41.106;16.688;2023-10-19T11:18:03;9.13;;;5.75;;
69463;SDS011;56665;41.106;16.688;2023-10-19T11:21:08;11.60;;;5.90;;
69463;SDS011;56665;41.106;16.688;2023-10-19T11:24:23;14.75;;;6.70;;
69463;SDS011;56665;41.106;16.688;2023-10-19T11:27:28;11.15;;;6.15;;
69463;SDS011;56665;41.106;16.688;2023-10-19T11:30:32;15.50;;;6.23;;
69463;SDS011;56665;41.106;16.688;2023-10-19T11:33:35;12.77;;;6.15;;
69463;SDS011;56665;41.106;16.688;2023-10-19T11:36:40;12.30;;;6.20;;
69463;SDS011;56665;41.106;16.688;2023-10-19T11:39:44;12.90;;;6.18;;
69463;SDS011;56665;41.106;16.688;2023-10-19T11:42:48;14.32;;;6.50;;
69463;SDS011;56665;41.106;16.688;2023-10-19T11:45:54;12.17;;;6.20;;
69463;SDS011;56665;41.106;16.688;2023-10-19T11:48:57;12.32;;;6.00;;
69463;SDS011;56665;41.106;16.688;2023-10-19T11:52:04;12.38;;;6.32;;
69463;SDS011;56665;41.106;16.688;2023-10-19T11:55:09;14.20;;;6.35;;
69463;SDS011;56665;41.106;16.688;2023-10-19T11:58:12;13.13;;;7.13;;
69463;SDS011;56665;41.106;16.688;2023-10-19T12:01:17;15.47;;;6.80;;
69463;SDS011;56665;41.106;16.688;2023-10-19T12:04:20;11.95;;;6.78;;
69463;SDS011;56665;41.106;16.688;2023-10-19T12:07:24;11.98;;;6.68;;
69463;SDS011;56665;41.106;16.688;2023-10-19T12:10:28;13.02;;;7.38;;
69463;SDS011;56665;41.106;16.688;2023-10-19T12:13:42;13.07;;;7.10;;
69463;SDS011;56665;41.106;16.688;2023-10-19T12:16:50;13.10;;;6.17;;
69463;SDS011;56665;41.106;16.688;2023-10-19T12:19:54;11.43;;;6.47;;
69463;SDS011;56665;41.106;16.688;2023-10-19T12:22:58;15.18;;;6.50;;
69463;SDS011;56665;41.106;16.688;2023-10-19T12:26:02;14.70;;;6.88;;
69463;SDS011;56665;41.106;16.688;2023-10-19T12:29:07;11.80;;;6.78;;
69463;SDS011;56665;41.106;16.688;2023-10-19T12:32:14;16.73;;;6.77;;
69463;SDS011;56665;41.106;16.688;2023-10-19T12:35:17;12.20;;;6.80;;
69463;SDS011;56665;41.106;16.688;2023-10-19T12:38:33;12.75;;;6.97;;
69463;SDS011;56665;41.106;16.688;2023-10-19T12:41:37;16.17;;;6.80;;
69463;SDS011;56665;41.106;16.688;2023-10-19T12:44:41;14.68;;;6.72;;
69463;SDS011;56665;41.106;16.688;2023-10-19T12:47:44;15.17;;;6.80;;
69463;SDS011;56665;41.106;16.688;2023-10-19T12:50:48;18.48;;;7.30;;
69463;SDS011;56665;41.106;16.688;2023-10-19T12:53:52;16.20;;;7.10;;
69463;SDS011;56665;41.106;16.688;2023-10-19T12:56:56;15.68;;;6.85;;
69463;SDS011;56665;41.106;16.688;2023-10-19T13:00:00;11.80;;;6.57;;
69463;SDS011;56665;41.106;16.688;2023-10-19T13:03:24;14.37;;;6.93;;
69463;SDS011;56665;41.106;16.688;2023-10-19T13:06:30;11.48;;;6.40;;
69463;SDS011;56665;41.106;16.688;2023-10-19T13:09:34;20.45;;;7.68;;
69463;SDS011;56665;41.106;16.688;2023-10-19T13:12:39;14.32;;;7.20;;
69463;SDS011;56665;41.106;16.688;2023-10-19T13:15:45;17.30;;;6.90;;
69463;SDS011;56665;41.106;16.688;2023-10-19T13:18:49;15.33;;;7.23;;
69463;SDS011;56665;41.106;16.688;2023-10-19T13:21:55;14.40;;;6.93;;
69463;SDS011;56665;41.106;16.688;2023-10-19T13:25:01;14.05;;;7.13;;
69463;SDS011;56665;41.106;16.688;2023-10-19T13:28:06;15.48;;;7.10;;
69463;SDS011;56665;41.106;16.688;2023-10-19T13:31:14;13.70;;;7.25;;
69463;SDS011;56665;41.106;16.688;2023-10-19T13:34:18;16.10;;;7.00;;
69463;SDS011;56665;41.106;16.688;2023-10-19T13:37:21;12.95;;;6.97;;
69463;SDS011;56665;41.106;16.688;2023-10-19T13:40:27;13.82;;;7.97;;
69463;SDS011;56665;41.106;16.688;2023-10-19T13:43:34;14.95;;;7.70;;
69463;SDS011;56665;41.106;16.688;2023-10-19T13:46:56;12.18;;;6.75;;
69463;SDS011;56665;41.106;16.688;2023-10-19T13:50:00;12.40;;;6.50;;
69463;SDS011;56665;41.106;16.688;2023-10-19T13:53:04;16.35;;;7.15;;
69463;SDS011;56665;41.106;16.688;2023-10-19T13:56:08;13.30;;;7.65;;
69463;SDS011;56665;41.106;16.688;2023-10-19T13:59:12;17.10;;;7.18;;
69463;SDS011;56665;41.106;16.688;2023-10-19T14:02:17;14.38;;;7.57;;
69463;SDS011;56665;41.106;16.688;2023-10-19T14:05:21;19.63;;;7.80;;
69463;SDS011;56665;41.106;16.688;2023-10-19T14:08:27;20.08;;;8.20;;
69463;SDS011;56665;41.106;16.688;2023-10-19T14:11:31;13.77;;;7.70;;
69463;SDS011;56665;41.106;16.688;2023-10-19T14:14:35;16.35;;;7.65;;
69463;SDS011;56665;41.106;16.688;2023-10-19T14:17:39;15.52;;;7.40;;
69463;SDS011;56665;41.106;16.688;2023-10-19T14:20:43;18.63;;;7.67;;
69463;SDS011;56665;41.106;16.688;2023-10-19T14:23:47;17.27;;;8.10;;
69463;SDS011;56665;41.106;16.688;2023-10-19T14:26:51;20.40;;;8.35;;
69463;SDS011;56665;41.106;16.688;2023-10-19T14:29:55;18.00;;;7.70;;
69463;SDS011;56665;41.106;16.688;2023-10-19T14:32:58;17.50;;;8.23;;
69463;SDS011;56665;41.106;16.688;2023-10-19T14:36:05;16.97;;;8.40;;
69463;SDS011;56665;41.106;16.688;2023-10-19T14:39:10;16.50;;;7.38;;
69463;SDS011;56665;41.106;16.688;2023-10-19T14:42:17;16.23;;;7.57;;
69463;SDS011;56665;41.106;16.688;2023-10-19T14:45:21;15.32;;;8.13;;
69463;SDS011;56665;41.106;16.688;2023-10-19T14:48:32;15.73;;;7.80;;
69463;SDS011;56665;41.106;16.688;2023-10-19T14:51:38;14.43;;;7.90;;
69463;SDS011;56665;41.106;16.688;2023-10-19T14:54:42;18.33;;;8.23;;
69463;SDS011;56665;41.106;16.688;2023-10-19T14:57:50;19.23;;;8.55;;
69463;SDS011;56665;41.106;16.688;2023-10-19T15:00:58;18.27;;;8.27;;
69463;SDS011;56665;41.106;16.688;2023-10-19T15:04:02;15.45;;;7.60;;
69463;SDS011;56665;41.106;16.688;2023-10-19T15:07:06;16.97;;;8.17;;
69463;SDS011;56665;41.106;16.688;2023-10-19T15:10:10;12.88;;;8.60;;
69463;SDS011;56665;41.106;16.688;2023-10-19T15:13:14;13.48;;;8.35;;
69463;SDS011;56665;41.106;16.688;2023-10-19T15:16:18;15.57;;;7.88;;
69463;SDS011;56665;41.106;16.688;2023-10-19T15:19:22;17.35;;;7.95;;
69463;SDS011;56665;41.106;16.688;2023-10-19T15:22:26;15.43;;;7.77;;
69463;SDS011;56665;41.106;16.688;2023-10-19T15:25:29;16.85;;;8.13;;
69463;SDS011;56665;41.106;16.688;2023-10-19T15:28:33;20.27;;;8.77;;
69463;SDS011;56665;41.106;16.688;2023-10-19T15:31:37;18.75;;;8.27;;
69463;SDS011;56665;41.106;16.688;2023-10-19T15:34:41;14.93;;;8.95;;
69463;SDS011;56665;41.106;16.688;2023-10-19T15:37:46;18.40;;;8.90;;
69463;SDS011;56665;41.106;16.688;2023-10-19T15:40:52;21.00;;;8.98;;
69463;SDS011;56665;41.106;16.688;2023-10-19T15:43:56;18.02;;;9.00;;
69463;SDS011;56665;41.106;16.688;2023-10-19T15:46:59;20.42;;;8.75;;
69463;SDS011;56665;41.106;16.688;2023-10-19T15:50:03;15.65;;;8.73;;
69463;SDS011;56665;41.106;16.688;2023-10-19T15:53:07;18.90;;;9.00;;
69463;SDS011;56665;41.106;16.688;2023-10-19T15:56:11;20.83;;;8.80;;
69463;SDS011;56665;41.106;16.688;2023-10-19T15:59:16;21.00;;;9.30;;
69463;SDS011;56665;41.106;16.688;2023-10-19T16:02:20;24.33;;;8.85;;
69463;SDS011;56665;41.106;16.688;2023-10-19T16:05:24;17.15;;;8.88;;
69463;SDS011;56665;41.106;16.688;2023-10-19T16:08:28;23.13;;;8.67;;
69463;SDS011;56665;41.106;16.688;2023-10-19T16:11:32;17.90;;;8.90;;
69463;SDS011;56665;41.106;16.688;2023-10-19T16:14:36;16.45;;;8.15;;
69463;SDS011;56665;41.106;16.688;2023-10-19T16:17:43;20.40;;;8.63;;
69463;SDS011;56665;41.106;16.688;2023-10-19T16:20:49;16.83;;;8.65;;
69463;SDS011;56665;41.106;16.688;2023-10-19T16:23:53;18.43;;;8.97;;
69463;SDS011;56665;41.106;16.688;2023-10-19T16:26:57;17.38;;;9.02;;
69463;SDS011;56665;41.106;16.688;2023-10-19T16:30:00;20.80;;;8.55;;
69463;SDS011;56665;41.106;16.688;2023-10-19T16:33:04;20.42;;;8.20;;
69463;SDS011;56665;41.106;16.688;2023-10-19T16:36:08;18.52;;;8.45;;
69463;SDS011;56665;41.106;16.688;2023-10-19T16:39:12;20.23;;;8.30;;
69463;SDS011;56665;41.106;16.688;2023-10-19T16:42:21;19.33;;;8.30;;
69463;SDS011;56665;41.106;16.688;2023-10-19T16:45:25;22.63;;;9.27;;
69463;SDS011;56665;41.106;16.688;2023-10-19T16:48:29;20.90;;;8.43;;
69463;SDS011;56665;41.106;16.688;2023-10-19T16:51:33;21.42;;;8.77;;
69463;SDS011;56665;41.106;16.688;2023-10-19T16:54:44;21.80;;;8.03;;
69463;SDS011;56665;41.106;16.688;2023-10-19T16:57:48;13.52;;;8.27;;
69463;SDS011;56665;41.106;16.688;2023-10-19T17:00:52;19.65;;;8.38;;
69463;SDS011;56665;41.106;16.688;2023-10-19T17:03:56;23.00;;;8.50;;
69463;SDS011;56665;41.106;16.688;2023-10-19T17:06:59;22.50;;;7.93;;
69463;SDS011;56665;41.106;16.688;2023-10-19T17:10:03;16.63;;;8.23;;
69463;SDS011;56665;41.106;16.688;2023-10-19T17:13:09;18.98;;;8.68;;
69463;SDS011;56665;41.106;16.688;2023-10-19T17:16:13;20.25;;;8.15;;
69463;SDS011;56665;41.106;16.688;2023-10-19T17:19:16;13.27;;;7.95;;
69463;SDS011;56665;41.106;16.688;2023-10-19T17:22:20;17.65;;;8.38;;
69463;SDS011;56665;41.106;16.688;2023-10-19T17:25:24;23.23;;;8.40;;
69463;SDS011;56665;41.106;16.688;2023-10-19T17:28:28;13.77;;;8.10;;
69463;SDS011;56665;41.106;16.688;2023-10-19T17:31:32;18.85;;;9.07;;
69463;SDS011;56665;41.106;16.688;2023-10-19T17:34:36;29.60;;;9.10;;
69463;SDS011;56665;41.106;16.688;2023-10-19T17:37:40;18.08;;;8.40;;
69463;SDS011;56665;41.106;16.688;2023-10-19T17:40:44;20.30;;;8.57;;
69463;SDS011;56665;41.106;16.688;2023-10-19T17:43:48;22.25;;;9.05;;
69463;SDS011;56665;41.106;16.688;2023-10-19T17:46:52;17.45;;;8.15;;
69463;SDS011;56665;41.106;16.688;2023-10-19T17:49:55;18.85;;;8.82;;
69463;SDS011;56665;41.106;16.688;2023-10-19T17:53:00;17.25;;;8.48;;
69463;SDS011;56665;41.106;16.688;2023-10-19T17:56:04;21.83;;;8.80;;
69463;SDS011;56665;41.106;16.688;2023-10-19T17:59:11;20.73;;;9.07;;
69463;SDS011;56665;41.106;16.688;2023-10-19T18:02:15;21.08;;;8.88;;
69463;SDS011;56665;41.106;16.688;2023-10-19T18:05:20;22.80;;;8.00;;
69463;SDS011;56665;41.106;16.688;2023-10-19T18:08:24;19.42;;;8.98;;
69463;SDS011;56665;41.106;16.688;2023-10-19T18:11:28;22.30;;;9.17;;
69463;SDS011;56665;41.106;16.688;2023-10-19T18:14:31;20.15;;;9.40;;
69463;SDS011;56665;41.106;16.688;2023-10-19T18:17:35;19.27;;;9.18;;